Bradford Regional Airport
KBFD : now visible

Airfield :











YOU CAN JOIN US ON...

 
LOGIN :

Register | Disclaimer

   EN    FR    IT 

 









Legend :    VFR   Marginal VFR   IFR   Intensive IFR   Very Intensive IFR
Visi :
Ceiling :
>= 8 km
>= 3000ft
5 to 8 km
1000 to 3000 ft
1500m to 5 km
500 to 1000 ft
800 to 1500m
200 to 500 ft
< 800m
< 200 ft
Symbols :   Thunderstorms  Fog  Heavy snow  Heavy precipitations  Wind > 20 kt






- Airport Elevation : 2143 ft
- IATA code : BFD


KBFD - Bradford Regional

CURRENT METAR :
  • 041520Z AUTO 29004KT 10SM BKN019 M01/M07 A3015 RMK AO2 T10111072 $

EXPIRED METARs :
  • 041453Z AUTO VRB05KT 10SM BKN019 M02/M07 A3014 RMK AO2 SLP227 T10171072 56009 $
  • 041422Z AUTO 24005KT 10SM FEW019 M02/M08 A3015 RMK AO2 T10221078 $
  • 041353Z AUTO VRB05KT 10SM BKN019 M02/M08 A3015 RMK AO2 SLP230 T10171078 $
  • 041253Z AUTO 28006KT 10SM SCT022 M02/M08 A3016 RMK AO2 SLP233 T10221078 $

TAF KBFD
Valid from the 04 at 15:00 until the 05 at 12:00 UTC


041450Z 0415/0512 24005KT P6SM FEW019
FM041600 26009G15KT P6SM FEW250
KZOB FIR / North America



MET'MAP, your aeronautical weather chart ! - Copyright ORBIFLY December 2007 - Disclaimer

ORBIFLY MET'MAP TEAM :

Programming & Development : Alexandra Zaïnal
Original concept : Baudouin d'Aumeries
Technical & hardware support : Manuel Goepfert
Assistance : Marc-Olivier Méhu




SOURCES & CREDITS :

   NOAA       Earth
Advisory